Mario Luis — CUOW8 — position and weather

sailwx.info

Track history (hours):
 
Tides and Currents Weather Stations Pressure Air Temp Water Temp Dewpoint Dewpoint Depression Visibility Wind Speed Wind Dir Waves Ship Positions

Mario Luis

Last reported at 2018-Jul-17 06:44 UTC. Time now 2018-Jul-17 19:09 UTC.
Position N 37°02' W 008°51'.

Length 23 m.

Type: Fishing. MMSI: 263401680.

Date/timePositionNaut miles runAvg speedWind from/ knotsBaromVisibWave heightAir tempDewpointWater temp
2018-Jul-17 06:44N 37°02' W 008°51'1 5.9
2018-Jul-17 06:30N 37°01' W 008°53'1 2.0
2018-Jul-17 05:59N 37°01' W 008°52'4 8.1
2018-Jul-17 05:30N 36°60' W 008°56'3 2.7
2018-Jul-17 04:34N 37°01' W 008°53'0 0.7
2018-Jul-17 04:25N 37°01' W 008°53'1 0.0
2018-Jul-16 05:19N 37°01' W 008°54'0 0.2
2018-Jul-16 04:58N 37°01' W 008°54'  
2018-Jul-13 11:12N 37°01' W 008°51'0 1.6
2018-Jul-13 10:58N 37°01' W 008°51'0 0.4
2018-Jul-13 10:25N 37°01' W 008°51'0 0.3
2018-Jul-13 09:58N 37°01' W 008°51'0 0.3
2018-Jul-13 09:28N 37°01' W 008°51'3 0.3
2018-Jul-13 00:39N 37°03' W 008°48'1 9.4
2018-Jul-13 00:30N 37°04' W 008°46'12 8.8
2018-Jul-12 23:09N 37°06' W 008°32'1 9.1
2018-Jul-12 23:00N 37°08' W 008°32'0 0.0
2018-Jul-12 11:12N 37°08' W 008°32'0 0.0
2018-Jul-12 11:01N 37°08' W 008°32'0 0.1
2018-Jul-12 10:30N 37°08' W 008°32'2 3.1
2018-Jul-12 10:00N 37°06' W 008°32'610.8
2018-Jul-12 09:29N 37°04' W 008°38'510.5
2018-Jul-12 09:00N 37°02' W 008°44'0 0.7
2018-Jul-12 08:30N 37°02' W 008°44'0 0.4
2018-Jul-12 08:00N 37°03' W 008°45'  
2018-Jul-09 04:24N 37°04' W 008°27'8 2.2
2018-Jul-09 00:36N 37°02' W 008°37'  
Track history (hours):
 
Tides and Currents Weather Stations Pressure Air Temp Water Temp Dewpoint Dewpoint Depression Visibility Wind Speed Wind Dir Waves Ship Positions

Mario Luis

Last reported at 2018-Jul-17 06:44 UTC. Time now 2018-Jul-17 19:09 UTC.
Position N 37°02' W 008°51'.

Length 23 m.

Type: Fishing. MMSI: 263401680.

Date/timePositionNaut miles runAvg speedWind from/ knotsBaromVisibWave heightAir tempDewpointWater temp
2018-Jul-17 06:44N 37°02' W 008°51'1 5.9
2018-Jul-17 06:30N 37°01' W 008°53'1 2.0
2018-Jul-17 05:59N 37°01' W 008°52'4 8.1
2018-Jul-17 05:30N 36°60' W 008°56'3 2.7
2018-Jul-17 04:34N 37°01' W 008°53'0 0.7
2018-Jul-17 04:25N 37°01' W 008°53'1 0.0
2018-Jul-16 05:19N 37°01' W 008°54'0 0.2
2018-Jul-16 04:58N 37°01' W 008°54'  
2018-Jul-13 11:12N 37°01' W 008°51'0 1.6
2018-Jul-13 10:58N 37°01' W 008°51'0 0.4
2018-Jul-13 10:25N 37°01' W 008°51'0 0.3
2018-Jul-13 09:58N 37°01' W 008°51'0 0.3
2018-Jul-13 09:28N 37°01' W 008°51'3 0.3
2018-Jul-13 00:39N 37°03' W 008°48'1 9.4
2018-Jul-13 00:30N 37°04' W 008°46'12 8.8
2018-Jul-12 23:09N 37°06' W 008°32'1 9.1
2018-Jul-12 23:00N 37°08' W 008°32'0 0.0
2018-Jul-12 11:12N 37°08' W 008°32'0 0.0
2018-Jul-12 11:01N 37°08' W 008°32'0 0.1
2018-Jul-12 10:30N 37°08' W 008°32'2 3.1
2018-Jul-12 10:00N 37°06' W 008°32'610.8
2018-Jul-12 09:29N 37°04' W 008°38'510.5
2018-Jul-12 09:00N 37°02' W 008°44'0 0.7
2018-Jul-12 08:30N 37°02' W 008°44'0 0.4
2018-Jul-12 08:00N 37°03' W 008°45'  
2018-Jul-09 04:24N 37°04' W 008°27'8 2.2
2018-Jul-09 00:36N 37°02' W 008°37'  

Dump ship's entire track history